Time;durP1;ratioP1;P1;durP2;ratioP2;P2;SDS_P1;SDS_P2;PMS_P1;PMS_P2;Temp;Humidity;BMP_temperature;BMP_pressure;BME280_temperature;BME280_humidity;BME280_pressure;Samples;Min_cycle;Max_cycle;Signal;HPM_P1;HPM_P2
2022/01/23 00:00:18;;;;;;;9.52;4.03;;;;;;;-4.46;59.76;95781.63;5107129;28;20031;-78
2022/01/23 00:02:44;;;;;;;7.93;4.80;;;;;;;-4.43;60.16;95776.22;5107073;28;20032;-77
2022/01/23 00:05:10;;;;;;;7.82;4.57;;;;;;;-4.47;59.90;95786.03;5107780;28;20035;-76
2022/01/23 00:07:36;;;;;;;8.90;4.40;;;;;;;-4.38;59.57;95784.72;5072779;28;20096;-77
2022/01/23 00:10:02;;;;;;;8.30;4.57;;;;;;;-4.34;59.69;95783.63;5106187;28;20443;-76
2022/01/23 00:12:32;;;;;;;7.30;4.20;;;;;;;-4.34;59.92;95786.25;5107234;28;20027;-77
2022/01/23 00:17:41;;;;;;;6.10;3.45;;;;;;;-4.37;60.44;95782.94;5106252;28;20112;-77
2022/01/23 00:20:08;;;;;;;7.00;4.22;;;;;;;-4.38;60.88;95789.09;5107595;28;20027;-77
2022/01/23 00:22:46;;;;;;;9.68;4.50;;;;;;;-4.45;61.16;95790.34;5106149;28;20051;-76
2022/01/23 00:30:41;;;;;;;6.05;3.95;;;;;;;-4.71;62.41;95790.69;5106029;28;20068;-77
2022/01/23 00:33:07;;;;;;;8.57;4.57;;;;;;;-4.71;62.18;95801.16;5106471;28;20030;-76
2022/01/23 00:35:33;;;;;;;6.80;3.78;;;;;;;-4.65;62.46;95794.75;5105904;28;20433;-76
2022/01/23 00:37:59;;;;;;;6.13;3.58;;;;;;;-4.64;62.12;95807.78;5088259;28;20024;-76
2022/01/23 00:40:26;;;;;;;9.07;4.07;;;;;;;-4.71;62.25;95807.22;5072139;28;20067;-76
2022/01/23 00:42:54;;;;;;;9.30;4.30;;;;;;;-4.78;62.55;95808.44;5105383;28;20040;-76
2022/01/23 00:47:53;;;;;;;8.02;4.32;;;;;;;-4.84;63.35;95811.38;5089559;28;20430;-78
2022/01/23 00:50:19;;;;;;;7.07;4.10;;;;;;;-4.85;63.51;95810.50;5107163;28;20036;-76
2022/01/23 00:52:44;;;;;;;7.57;4.30;;;;;;;-4.86;63.78;95808.81;5105574;28;20148;-76
2022/01/23 00:55:10;;;;;;;6.43;3.58;;;;;;;-4.85;64.18;95813.13;5105771;28;20080;-77
2022/01/23 00:57:35;;;;;;;6.72;4.32;;;;;;;-4.87;64.44;95817.56;5088608;28;20405;-77
2022/01/23 01:00:03;;;;;;;7.13;3.95;;;;;;;-4.92;64.66;95811.72;5088465;28;20035;-77
2022/01/23 01:02:28;;;;;;;9.75;4.30;;;;;;;-4.85;64.52;95813.13;5105876;28;20169;-77
2022/01/23 01:04:53;;;;;;;7.68;4.30;;;;;;;-4.84;64.45;95806.97;5088283;28;20027;-77
2022/01/23 01:07:19;;;;;;;7.20;4.25;;;;;;;-4.88;64.68;95805.41;5105780;28;20080;-78
2022/01/23 01:09:49;;;;;;;10.68;3.97;;;;;;;-4.77;64.34;95817.16;5106519;28;20020;-78
2022/01/23 01:12:20;;;;;;;5.57;3.50;;;;;;;-4.81;64.25;95818.22;5105844;28;20032;-77
2022/01/23 01:33:33;;;;;;;10.10;5.20;;;;;;;-5.00;65.15;95824.31;5088611;28;20031;-78
2022/01/23 01:36:15;;;;;;;8.93;5.47;;;;;;;-4.96;64.19;95823.25;5089831;28;20031;-77
2022/01/23 01:38:41;;;;;;;11.93;5.65;;;;;;;-4.87;63.67;95825.41;5106586;28;20050;-76
2022/01/23 01:41:06;;;;;;;11.90;5.00;;;;;;;-4.88;63.80;95823.75;5105253;28;20514;-77
2022/01/23 01:43:32;;;;;;;11.00;5.78;;;;;;;-4.84;63.67;95817.41;5087684;28;20405;-77
2022/01/23 01:45:57;;;;;;;11.82;5.63;;;;;;;-4.87;64.02;95819.38;5105245;28;20034;-78
2022/01/23 01:48:25;;;;;;;9.85;6.05;;;;;;;-4.84;63.86;95817.41;5105322;28;20030;-77
2022/01/23 01:50:52;;;;;;;10.45;6.03;;;;;;;-4.75;63.20;95807.44;5110634;28;20084;-77
2022/01/23 01:53:17;;;;;;;12.52;5.70;;;;;;;-4.77;63.14;95811.94;5109216;28;20035;-78
2022/01/23 01:55:48;;;;;;;10.27;5.72;;;;;;;-4.80;63.27;95804.22;5091858;28;20019;-77
2022/01/23 01:58:34;;;;;;;9.68;5.15;;;;;;;-4.79;63.16;95804.16;5076612;28;20034;-77
2022/01/23 02:01:06;;;;;;;11.10;5.82;;;;;;;-4.75;63.03;95817.91;5094417;28;20043;-77
2022/01/23 02:08:44;;;;;;;12.63;6.05;;;;;;;-4.84;63.02;95816.59;5109283;28;20034;-76
2022/01/23 02:15:13;;;;;;;9.23;5.05;;;;;;;-4.82;62.80;95804.25;5106334;28;20036;-77
2022/01/23 02:22:54;;;;;;;9.55;4.35;;;;;;;-4.91;62.59;95813.41;5094738;28;20475;-77
2022/01/23 02:55:26;;;;;;;9.75;5.55;;;;;;;-5.49;64.06;95841.31;5093893;28;20111;-76
2022/01/23 02:57:58;;;;;;;12.75;5.85;;;;;;;-5.51;64.08;95837.91;5091938;28;20485;-75
2022/01/23 03:00:32;;;;;;;9.50;4.88;;;;;;;-5.43;63.98;95838.44;5107402;28;20081;-76
2022/01/23 03:03:05;;;;;;;10.63;5.10;;;;;;;-5.47;64.07;95840.34;5107917;28;20028;-78
2022/01/23 03:08:03;;;;;;;8.77;5.25;;;;;;;-5.41;63.64;95848.81;5109467;28;20474;-77
2022/01/23 03:10:35;;;;;;;;;;;;;;;-5.37;63.16;95850.41;5092425;28;20521;-78
2022/01/23 03:26:36;;;;;;;8.70;4.95;;;;;;;-5.43;62.17;95851.50;5107627;28;20038;-77
2022/01/23 03:34:17;;;;;;;8.30;4.78;;;;;;;-5.47;61.86;95860.41;5091591;28;20038;-77
2022/01/23 03:36:43;;;;;;;9.20;4.70;;;;;;;-5.45;61.65;95869.03;5090045;28;20031;-76
2022/01/23 03:39:08;;;;;;;8.75;4.60;;;;;;;-5.48;61.43;95863.94;5107536;28;20019;-76
2022/01/23 03:41:39;;;;;;;6.72;4.43;;;;;;;-5.46;61.39;95862.09;5090010;28;20035;-79
2022/01/23 03:44:06;;;;;;;8.40;4.78;;;;;;;-5.43;61.28;95861.97;5072998;28;20052;-76
2022/01/23 03:46:47;;;;;;;9.63;4.95;;;;;;;-5.64;61.78;95854.16;5090126;28;20093;-75
2022/01/23 03:49:32;;;;;;;10.82;5.00;;;;;;;-5.55;61.69;95859.88;5091720;28;20028;-76
2022/01/23 03:52:02;;;;;;;7.80;4.43;;;;;;;-5.59;62.05;95867.00;5107554;28;20024;-77
2022/01/23 03:54:28;;;;;;;10.98;4.60;;;;;;;-5.53;61.50;95866.75;5089866;28;20030;-77
2022/01/23 03:56:55;;;;;;;11.45;4.53;;;;;;;-5.57;61.61;95867.81;5106864;28;20043;-76
2022/01/23 03:59:20;;;;;;;9.45;5.22;;;;;;;-5.55;61.58;95870.34;5107092;28;20061;-77
2022/01/23 04:01:45;;;;;;;7.90;5.00;;;;;;;-5.53;61.45;95876.38;5107568;28;20144;-77
2022/01/23 04:04:27;;;;;;;8.27;4.50;;;;;;;-5.60;62.27;95876.63;5089891;28;20034;-78
2022/01/23 04:06:52;;;;;;;7.68;4.55;;;;;;;-5.51;61.56;95877.97;5092161;28;20110;-76
2022/01/23 04:09:18;;;;;;;8.65;4.95;;;;;;;-5.49;61.67;95888.38;5106804;28;20398;-76
2022/01/23 04:11:44;;;;;;;8.93;5.25;;;;;;;-5.48;61.76;95882.25;5088955;28;20085;-78
2022/01/23 04:14:12;;;;;;;8.35;4.57;;;;;;;-5.34;61.33;95890.34;5089893;28;20102;-77
2022/01/23 04:45:50;;;;;;;8.23;5.07;;;;;;;-5.17;60.30;95909.63;5076928;28;20047;-77
2022/01/23 04:59:32;;;;;;;9.63;5.55;;;;;;;-5.24;60.88;95909.06;5107971;28;20081;-78
2022/01/23 04:59:45;;;;;;;11.75;5.45;;;;;;;-5.18;60.94;95910.56;5094691;28;20438;-76
2022/01/23 05:02:57;;;;;;;10.00;5.72;;;;;;;-5.17;60.61;95914.00;5090637;28;20119;-78
2022/01/23 05:05:02;;;;;;;12.05;5.88;;;;;;;-5.18;60.61;95918.41;5105570;28;20036;-78
2022/01/23 05:07:29;;;;;;;10.70;5.57;;;;;;;-5.04;59.94;95915.16;5105200;28;20035;-77
2022/01/23 05:09:55;;;;;;;10.98;6.13;;;;;;;-5.05;59.48;95912.63;5107103;28;20106;-76
2022/01/23 05:12:27;;;;;;;8.80;5.70;;;;;;;-5.15;59.64;95913.03;5105326;28;20035;-78
2022/01/23 05:14:53;;;;;;;14.52;6.13;;;;;;;-5.34;60.34;95924.34;5105627;28;20028;-78
2022/01/23 05:17:19;;;;;;;15.82;6.47;;;;;;;-5.43;60.42;95927.31;5088525;28;20574;-80
2022/01/23 05:19:44;;;;;;;14.43;7.00;;;;;;;-5.49;60.58;95924.97;5088237;28;20030;-78
2022/01/23 05:25:09;;;;;;;13.85;5.68;;;;;;;-5.50;60.28;95931.13;5106102;28;20035;-76
2022/01/23 05:27:35;;;;;;;10.02;5.07;;;;;;;-5.41;59.56;95933.34;5091662;28;20027;-78
2022/01/23 05:30:00;;;;;;;7.90;4.15;;;;;;;-5.41;59.29;95925.50;5105584;28;20528;-79
2022/01/23 05:32:36;;;;;;;8.85;4.55;;;;;;;-5.43;59.36;95923.88;5105690;28;20032;-79
2022/01/23 05:35:01;;;;;;;9.20;4.97;;;;;;;-5.46;59.42;95925.69;5089677;28;20016;-79
2022/01/23 05:37:26;;;;;;;9.63;5.07;;;;;;;-5.51;59.50;95921.56;5087989;28;20019;-79
2022/01/23 05:39:52;;;;;;;10.80;5.35;;;;;;;-5.52;59.27;95931.19;5106807;28;20027;-81
2022/01/23 05:42:17;;;;;;;12.05;4.90;;;;;;;-5.64;59.48;95935.16;5090883;28;20023;-77
2022/01/23 05:44:43;;;;;;;14.73;5.88;;;;;;;-5.52;59.38;95935.56;5109073;28;20044;-76
2022/01/23 05:47:11;;;;;;;10.55;5.40;;;;;;;-5.53;59.45;95939.94;5109371;28;20016;-82
2022/01/23 05:49:36;;;;;;;10.77;5.95;;;;;;;-5.55;59.37;95943.53;5089306;28;20026;-83
2022/01/23 05:52:03;;;;;;;14.25;7.05;;;;;;;-5.58;59.36;95947.97;5104926;28;20023;-79
2022/01/23 05:54:28;;;;;;;12.52;7.00;;;;;;;-5.58;59.46;95947.16;5087668;28;20481;-77
2022/01/23 05:56:54;;;;;;;12.40;7.28;;;;;;;-5.56;59.47;95950.53;5105987;28;20024;-81
2022/01/23 05:59:21;;;;;;;15.45;7.85;;;;;;;-5.54;59.56;95958.31;5087702;28;20514;-78
2022/01/23 06:01:47;;;;;;;11.85;6.80;;;;;;;-5.40;59.36;95960.34;5105309;28;20112;-78
2022/01/23 06:04:13;;;;;;;13.38;6.80;;;;;;;-5.48;59.69;95952.84;5088176;28;20412;-76
2022/01/23 06:06:38;;;;;;;17.08;6.55;;;;;;;-5.31;59.28;95946.00;5105333;28;20506;-76
2022/01/23 06:09:04;;;;;;;13.95;6.85;;;;;;;-5.27;59.33;95951.03;5104380;28;20031;-78
2022/01/23 06:11:29;;;;;;;11.82;6.05;;;;;;;-5.29;59.41;95958.13;5105907;28;20039;-79
2022/01/23 06:13:54;;;;;;;11.95;5.32;;;;;;;-5.29;59.50;95959.88;5087884;28;20502;-76
2022/01/23 06:16:20;;;;;;;10.73;6.18;;;;;;;-5.24;59.45;95961.38;5105845;28;20027;-76
2022/01/23 06:18:46;;;;;;;12.82;6.15;;;;;;;-5.16;59.20;95961.06;5105085;28;20038;-78
2022/01/23 06:21:13;;;;;;;12.20;6.45;;;;;;;-5.00;58.58;95963.00;5087576;28;20383;-78
2022/01/23 06:23:39;;;;;;;11.60;6.32;;;;;;;-4.98;58.56;95969.00;5105184;28;20146;-78
2022/01/23 06:26:04;;;;;;;9.57;5.38;;;;;;;-4.96;57.70;95957.53;5105779;28;20027;-78
2022/01/23 06:28:30;;;;;;;12.15;5.78;;;;;;;-4.94;57.49;95964.47;5087863;28;20039;-76
2022/01/23 06:30:55;;;;;;;12.23;5.70;;;;;;;-4.87;57.49;95969.34;5106801;28;20027;-78
2022/01/23 06:33:20;;;;;;;12.10;6.50;;;;;;;-4.74;57.58;95974.06;5105708;28;20027;-78
2022/01/23 06:35:46;;;;;;;18.35;7.00;;;;;;;-4.56;57.22;95971.53;5088978;28;20409;-78
2022/01/23 06:38:11;;;;;;;13.48;6.93;;;;;;;-4.68;57.29;95968.53;5108100;28;20493;-77
2022/01/23 06:40:37;;;;;;;15.82;6.72;;;;;;;-4.72;57.53;95961.72;5109891;28;20478;-78
2022/01/23 06:43:02;;;;;;;11.82;6.95;;;;;;;-4.69;57.76;95966.00;5108975;28;20460;-78
2022/01/23 06:45:28;;;;;;;12.15;6.35;;;;;;;-4.72;57.70;95969.56;5108672;28;20028;-78
2022/01/23 06:47:53;;;;;;;13.85;7.50;;;;;;;-4.74;57.43;95972.28;5108414;28;20031;-78
2022/01/23 06:50:19;;;;;;;17.00;7.35;;;;;;;-4.56;56.60;95961.88;5091003;28;20074;-77
2022/01/23 06:52:44;;;;;;;13.75;6.50;;;;;;;-4.46;56.55;95957.06;5108451;28;20019;-76
2022/01/23 06:55:10;;;;;;;10.95;6.10;;;;;;;-4.52;56.26;95963.44;5073219;28;20034;-77
2022/01/23 06:57:36;;;;;;;9.23;5.40;;;;;;;-4.23;56.22;95955.13;5109258;28;20092;-77
2022/01/23 07:00:04;;;;;;;9.93;5.70;;;;;;;-4.11;55.47;95951.94;5108903;28;20059;-78
2022/01/23 07:02:29;;;;;;;8.95;5.70;;;;;;;-4.11;54.97;95951.09;5108079;28;20119;-77
2022/01/23 07:04:56;;;;;;;11.30;5.88;;;;;;;-4.11;55.61;95951.09;5073876;28;20032;-76
2022/01/23 07:07:22;;;;;;;9.43;5.30;;;;;;;-4.36;56.25;95957.50;5109069;28;20027;-79
2022/01/23 07:09:47;;;;;;;10.95;6.50;;;;;;;-4.04;55.30;95957.72;5107730;28;20028;-79
2022/01/23 07:12:12;;;;;;;12.73;6.78;;;;;;;-3.82;54.77;95953.22;5107031;28;20031;-78
2022/01/23 07:14:38;;;;;;;13.57;7.03;;;;;;;-3.81;54.78;95953.16;5108009;28;20024;-77
2022/01/23 07:17:04;;;;;;;14.73;7.32;;;;;;;-3.63;54.60;95961.84;5108566;28;20043;-77
2022/01/23 07:19:29;;;;;;;17.33;8.27;;;;;;;-3.54;54.40;95965.81;5107729;28;20082;-77
2022/01/23 07:21:54;;;;;;;18.63;8.05;;;;;;;-3.26;53.71;95967.03;5108515;27;20089;-78
2022/01/23 07:24:20;;;;;;;16.75;8.00;;;;;;;-3.23;52.99;95963.41;5107618;28;20031;-77
2022/01/23 07:26:45;;;;;;;14.93;7.68;;;;;;;-3.20;53.23;95963.25;5073393;28;20016;-78
2022/01/23 07:29:11;;;;;;;15.80;8.35;;;;;;;-3.68;54.38;95958.63;5090182;28;20027;-79
2022/01/23 07:34:03;;;;;;;17.20;9.48;;;;;;;-3.83;54.98;95948.88;5091133;28;20093;-78
2022/01/23 07:36:29;;;;;;;16.95;8.88;;;;;;;-3.79;54.89;95953.06;5110192;28;20106;-79
2022/01/23 07:38:54;;;;;;;15.93;8.68;;;;;;;-3.82;54.87;95950.59;5109800;28;20072;-77
2022/01/23 07:41:20;;;;;;;13.88;7.55;;;;;;;-3.98;55.47;95951.31;5077608;28;20020;-76
2022/01/23 07:43:45;;;;;;;13.43;7.28;;;;;;;-4.06;55.88;95950.88;5107454;28;20529;-77
2022/01/23 07:46:11;;;;;;;13.48;6.97;;;;;;;-4.11;56.80;95951.94;5111011;28;20038;-77
2022/01/23 07:48:36;;;;;;;15.07;7.25;;;;;;;-4.15;57.53;95954.78;5093959;28;20027;-77
2022/01/23 07:51:02;;;;;;;10.60;6.72;;;;;;;-4.20;57.93;95956.75;5108249;28;20020;-77
2022/01/23 07:53:27;;;;;;;10.88;6.05;;;;;;;-4.17;58.27;95961.84;5106541;28;20038;-77
2022/01/23 07:55:52;;;;;;;14.77;6.80;;;;;;;-4.20;58.28;95970.72;5089255;28;20035;-77
2022/01/23 07:58:18;;;;;;;12.90;6.85;;;;;;;-4.19;58.93;95968.94;5106471;28;20027;-76
2022/01/23 08:00:44;;;;;;;8.98;5.80;;;;;;;-4.09;58.67;95975.44;5106569;28;20016;-77
2022/01/23 08:03:09;;;;;;;13.50;6.45;;;;;;;-3.99;57.86;95979.31;5090088;28;20031;-78
2022/01/23 08:05:35;;;;;;;12.95;6.10;;;;;;;-3.93;58.38;95979.97;5107805;28;20020;-77
2022/01/23 08:08:01;;;;;;;11.85;6.90;;;;;;;-3.92;58.08;95985.13;5089871;28;20147;-77
2022/01/23 08:10:26;;;;;;;13.82;7.45;;;;;;;-3.83;57.97;95975.09;5107963;28;20514;-79
2022/01/23 08:12:52;;;;;;;12.52;7.82;;;;;;;-3.72;57.62;95970.19;5089673;28;20039;-78
2022/01/23 08:15:18;;;;;;;12.32;7.05;;;;;;;-3.54;56.90;95973.66;5106648;28;20031;-76
2022/01/23 08:17:44;;;;;;;13.48;6.75;;;;;;;-3.33;55.81;95983.16;5107119;28;20024;-79
2022/01/23 08:20:09;;;;;;;12.98;7.05;;;;;;;-3.35;55.47;95976.22;5089789;28;20035;-78
2022/01/23 08:22:35;;;;;;;10.20;6.47;;;;;;;-3.39;56.13;95979.94;5072140;28;20469;-78
2022/01/23 08:25:03;;;;;;;12.35;6.50;;;;;;;-3.24;55.34;95980.91;5089674;28;20031;-76
2022/01/23 08:27:29;;;;;;;14.75;6.30;;;;;;;-3.15;55.15;95981.38;5089209;28;20035;-78
2022/01/23 08:29:54;;;;;;;13.10;6.63;;;;;;;-3.16;55.28;95979.69;5089227;28;20061;-77
2022/01/23 08:32:20;;;;;;;9.60;6.07;;;;;;;-3.11;55.21;95989.00;5089248;28;20020;-76
2022/01/23 08:34:45;;;;;;;12.18;6.65;;;;;;;-2.95;55.22;95984.75;5071462;28;20038;-78
2022/01/23 08:37:11;;;;;;;11.43;5.60;;;;;;;-2.96;54.27;95970.75;5106024;28;20027;-78
2022/01/23 08:39:37;;;;;;;10.30;5.90;;;;;;;-2.98;54.94;95968.22;5088733;28;20047;-76
2022/01/23 08:42:10;;;;;;;13.20;6.63;;;;;;;-2.97;54.27;95974.31;5089358;28;20153;-78
2022/01/23 08:44:36;;;;;;;10.88;6.18;;;;;;;-3.15;55.10;95966.47;5105602;28;20089;-77
2022/01/23 08:47:02;;;;;;;13.35;6.53;;;;;;;-3.04;54.48;95960.66;5107210;28;20027;-76
2022/01/23 08:49:28;;;;;;;11.88;6.22;;;;;;;-3.06;55.13;95964.31;5105938;28;20028;-80
2022/01/23 08:51:54;;;;;;;11.27;6.32;;;;;;;-3.00;54.92;95964.00;5088442;28;20089;-80
2022/01/23 08:54:19;;;;;;;12.23;6.18;;;;;;;-2.94;55.08;95961.03;5072263;28;20024;-76
2022/01/23 08:56:44;;;;;;;10.90;6.05;;;;;;;-3.03;54.18;95964.16;5104906;28;20030;-78
2022/01/23 08:59:10;;;;;;;12.75;5.70;;;;;;;-3.06;54.47;95969.56;5088255;28;20057;-77
2022/01/23 09:01:36;;;;;;;12.23;5.85;;;;;;;-3.09;55.19;95970.56;5105038;28;20433;-77
2022/01/23 09:04:02;;;;;;;12.85;6.60;;;;;;;-3.01;55.51;95971.00;5105863;28;20516;-76
2022/01/23 09:06:28;;;;;;;10.77;5.90;;;;;;;-3.01;54.34;95978.88;5105358;28;20433;-78
2022/01/23 09:08:54;;;;;;;12.43;5.88;;;;;;;-3.01;54.74;95978.88;5105006;28;20513;-77
2022/01/23 09:11:38;;;;;;;9.93;5.38;;;;;;;-3.06;54.52;95974.81;5105620;28;20019;-77
2022/01/23 09:14:07;;;;;;;9.77;5.90;;;;;;;-3.12;54.53;95971.56;5105395;28;20344;-79
2022/01/23 09:16:40;;;;;;;11.45;5.30;;;;;;;-3.12;54.66;95971.56;5089419;28;20024;-78
2022/01/23 09:19:05;;;;;;;7.85;4.88;;;;;;;-3.18;54.59;95974.50;5088429;28;20088;-78
2022/01/23 09:21:31;;;;;;;8.40;5.28;;;;;;;-3.13;54.77;95972.47;5071796;28;20085;-79
2022/01/23 09:23:56;;;;;;;8.10;4.65;;;;;;;-3.13;55.43;95971.66;5105220;28;20387;-79
2022/01/23 09:26:23;;;;;;;9.60;5.50;;;;;;;-3.18;54.87;95979.75;5105205;28;20391;-77
2022/01/23 09:28:49;;;;;;;8.93;4.97;;;;;;;-3.23;55.06;95971.28;5088741;28;20020;-77
2022/01/23 09:31:26;;;;;;;9.75;5.38;;;;;;;-3.15;54.59;95974.34;5087844;28;20031;-77
2022/01/23 09:33:52;;;;;;;11.95;5.35;;;;;;;-3.16;54.39;95975.25;5105439;28;20051;-77
2022/01/23 09:36:17;;;;;;;10.70;5.78;;;;;;;-3.09;54.31;95953.97;5104836;28;20038;-77
2022/01/23 09:38:44;;;;;;;10.98;5.25;;;;;;;-3.09;54.55;95962.69;5105090;28;20161;-78
2022/01/23 09:41:09;;;;;;;8.35;4.63;;;;;;;-3.12;53.80;95944.47;5088528;28;20024;-80
2022/01/23 09:43:34;;;;;;;8.80;5.43;;;;;;;-3.09;54.20;95953.97;5104907;28;20417;-78
2022/01/23 09:46:05;;;;;;;10.65;4.95;;;;;;;-3.07;54.68;95962.59;5088406;28;20023;-78
2022/01/23 09:48:30;;;;;;;13.43;5.82;;;;;;;-2.99;53.93;95952.56;5088909;28;20023;-77
2022/01/23 09:50:56;;;;;;;10.85;5.93;;;;;;;-3.02;53.94;95942.22;5088388;28;20482;-76
2022/01/23 09:53:22;;;;;;;9.05;4.68;;;;;;;-3.03;53.65;95943.97;5087801;28;20031;-76
2022/01/23 09:55:49;;;;;;;10.80;5.25;;;;;;;-3.02;53.64;95940.44;5106354;28;20438;-77
2022/01/23 09:58:15;;;;;;;9.32;4.60;;;;;;;-3.04;53.47;95939.69;5088103;28;20093;-79
2022/01/23 10:00:40;;;;;;;8.98;4.88;;;;;;;-3.05;54.01;95931.88;5106676;28;20217;-77
2022/01/23 10:03:06;;;;;;;9.52;5.10;;;;;;;-3.24;54.60;95940.72;5071460;28;20058;-79
2022/01/23 10:05:31;;;;;;;9.10;4.43;;;;;;;-3.14;53.79;95936.69;5104417;28;20034;-77
2022/01/23 10:07:57;;;;;;;10.02;5.75;;;;;;;-3.02;53.59;95923.84;5104840;28;20027;-77
2022/01/23 10:10:35;;;;;;;9.10;4.55;;;;;;;-2.99;53.25;95934.19;5104955;28;20062;-77
2022/01/23 10:13:01;;;;;;;8.10;4.60;;;;;;;-3.07;53.79;95921.47;5094032;28;20281;-77
2022/01/23 10:15:29;;;;;;;13.40;4.97;;;;;;;-3.10;54.06;95916.38;5091633;28;20020;-78
2022/01/23 10:17:55;;;;;;;14.25;5.60;;;;;;;-3.03;53.70;95922.97;5091686;28;20036;-79
2022/01/23 10:20:20;;;;;;;9.15;5.00;;;;;;;-3.07;53.58;95910.09;5108819;28;20031;-75
2022/01/23 10:22:49;;;;;;;10.73;5.85;;;;;;;-2.90;53.68;95902.19;5091526;28;20417;-77
2022/01/23 10:25:20;;;;;;;13.38;6.40;;;;;;;-2.84;53.55;95908.91;5091916;28;20034;-77
2022/01/23 10:27:52;;;;;;;9.27;4.80;;;;;;;-2.76;53.06;95903.22;5109145;28;20406;-76
2022/01/23 10:30:18;;;;;;;9.07;4.85;;;;;;;-2.74;53.34;95901.38;5110020;28;20024;-77
2022/01/23 10:33:15;;;;;;;10.98;5.03;;;;;;;-2.75;53.88;95890.03;5091574;28;20032;-78
2022/01/23 10:36:12;;;;;;;8.73;4.97;;;;;;;-2.78;52.94;95892.81;5093274;28;20046;-77
2022/01/23 10:38:45;;;;;;;12.73;5.90;;;;;;;-2.69;52.63;95893.25;5108699;28;20035;-78
2022/01/23 10:49:48;;;;;;;8.15;4.70;;;;;;;-2.85;53.47;95870.44;5031227;28;20052;-77
2022/01/23 10:52:38;;;;;;;7.43;5.03;;;;;;;-2.96;52.87;95863.16;5074374;28;20032;-77
2022/01/23 10:55:13;;;;;;;8.68;4.55;;;;;;;-2.96;52.73;95862.28;5108459;28;20032;-77
2022/01/23 10:57:46;;;;;;;7.88;4.20;;;;;;;-3.04;53.06;95863.56;5109016;28;20030;-77
2022/01/23 11:00:25;;;;;;;9.23;3.90;;;;;;;-3.09;52.86;95844.59;5091113;28;20032;-78
2022/01/23 11:02:51;;;;;;;7.13;4.10;;;;;;;-3.09;52.61;95854.25;5107539;28;20081;-77
2022/01/23 11:05:18;;;;;;;7.40;3.85;;;;;;;-3.21;53.43;95850.50;5090904;28;20054;-77
2022/01/23 11:07:45;;;;;;;11.45;3.95;;;;;;;-3.21;53.69;95846.09;5107942;28;20028;-76
2022/01/23 11:10:13;;;;;;;7.35;4.35;;;;;;;-3.18;53.88;95839.84;5107427;28;20039;-80
2022/01/23 11:17:52;;;;;;;7.93;4.07;;;;;;;-3.39;54.19;95827.78;5108128;28;20061;-76
2022/01/23 11:20:40;;;;;;;8.30;4.13;;;;;;;-3.49;54.29;95806.44;5107229;28;20467;-76
2022/01/23 11:23:32;;;;;;;8.13;4.18;;;;;;;-3.50;55.28;95824.88;5108041;28;20023;-77
2022/01/23 11:25:57;;;;;;;9.15;3.78;;;;;;;-3.55;55.83;95805.91;5091991;28;20103;-77
2022/01/23 11:28:40;;;;;;;12.70;3.90;;;;;;;-3.48;57.19;95804.66;5106874;28;20127;-77
2022/01/23 11:31:07;;;;;;;9.02;4.53;;;;;;;-3.43;56.19;95815.75;5092416;28;20447;-78
2022/01/23 11:33:32;;;;;;;9.30;3.58;;;;;;;-3.50;56.06;95803.91;5090125;28;20499;-78
2022/01/23 11:35:58;;;;;;;10.15;4.15;;;;;;;-3.48;56.77;95786.28;5107218;28;20069;-76
2022/01/23 11:38:24;;;;;;;9.55;4.38;;;;;;;-3.51;56.83;95791.69;5090383;28;20506;-77
2022/01/23 11:54:43;;;;;;;8.63;4.47;;;;;;;-3.18;56.01;95818.84;5093291;28;20533;-76
2022/01/23 11:57:33;;;;;;;5.63;3.70;;;;;;;-3.10;56.47;95806.16;5107053;28;20073;-77
2022/01/23 11:59:59;;;;;;;6.25;4.20;;;;;;;-3.08;55.76;95808.69;5108231;28;20504;-76
2022/01/23 12:02:29;;;;;;;7.07;4.25;;;;;;;-3.02;56.59;95800.50;5106015;28;20027;-77
2022/01/23 12:05:22;;;;;;;6.13;3.78;;;;;;;-3.02;56.02;95796.09;5090503;28;20031;-77
2022/01/23 12:08:15;;;;;;;8.52;4.13;;;;;;;-3.14;56.64;95808.09;5102582;28;20036;-77
2022/01/23 12:11:02;;;;;;;6.35;3.83;;;;;;;-3.19;57.15;95790.91;5107635;28;20477;-77
2022/01/23 12:13:56;;;;;;;5.63;3.35;;;;;;;-3.18;56.80;95782.97;5092726;28;20102;-77
2022/01/23 12:16:27;;;;;;;4.85;3.17;;;;;;;-3.14;55.78;95791.50;5092793;28;20032;-76
2022/01/23 12:19:12;;;;;;;;;;;;;;;-3.14;56.36;95789.72;5107057;28;20066;-75
2022/01/23 12:21:37;;;;;;;6.85;3.90;;;;;;;-3.25;57.11;95786.84;5107282;28;19912;-76
2022/01/23 12:24:04;;;;;;;9.93;4.50;;;;;;;-3.33;57.00;95779.38;5088793;28;20088;-77
2022/01/23 12:26:30;;;;;;;5.82;4.03;;;;;;;-3.42;57.17;95801.72;5106057;28;20466;-77
2022/01/23 12:28:55;;;;;;;6.95;3.90;;;;;;;-3.44;57.18;95797.47;5105836;28;20026;-77
2022/01/23 12:31:26;;;;;;;7.03;3.90;;;;;;;-3.43;58.10;95789.50;5089585;28;20482;-77
2022/01/23 12:33:57;;;;;;;6.40;4.05;;;;;;;-3.41;58.04;95797.31;5106186;28;20059;-77
2022/01/23 12:36:31;;;;;;;10.15;5.35;;;;;;;-3.41;58.11;95803.41;5107362;28;20027;-76
2022/01/23 12:39:07;;;;;;;9.48;4.75;;;;;;;-3.42;58.60;95793.84;5106004;28;20052;-77
2022/01/23 12:41:33;;;;;;;8.35;4.75;;;;;;;-3.49;58.56;95800.34;5105361;28;20059;-77
2022/01/23 12:44:23;;;;;;;7.72;4.40;;;;;;;-3.41;58.74;95781.56;5105982;28;20486;-77
2022/01/23 12:46:56;;;;;;;5.95;3.80;;;;;;;-3.42;58.00;95785.13;5106912;28;20050;-78
2022/01/23 12:49:38;;;;;;;7.88;4.13;;;;;;;-3.44;58.13;95781.72;5089322;28;20031;-77
2022/01/23 12:52:07;;;;;;;9.77;4.20;;;;;;;-3.40;57.98;95784.09;5107221;28;20038;-76
2022/01/23 12:54:52;;;;;;;9.52;4.10;;;;;;;-3.38;58.21;95781.41;5106586;28;20040;-76
2022/01/23 12:57:23;;;;;;;7.10;3.90;;;;;;;-3.44;58.38;95794.84;5091344;28;20363;-77
2022/01/23 12:59:57;;;;;;;5.32;4.13;;;;;;;-3.51;58.62;95791.69;5105267;28;20115;-77
2022/01/23 13:02:25;;;;;;;8.25;4.28;;;;;;;-3.59;58.77;95797.34;5105409;28;20468;-77
2022/01/23 13:04:51;;;;;;;7.28;4.15;;;;;;;-3.61;59.19;95807.91;5105591;28;20062;-76
2022/01/23 13:07:25;;;;;;;6.53;4.20;;;;;;;-3.63;59.04;95788.78;5105121;28;20036;-77
2022/01/23 13:10:03;;;;;;;7.68;4.43;;;;;;;-3.62;58.95;95801.00;5089504;28;20474;-76
2022/01/23 13:12:56;;;;;;;6.13;3.97;;;;;;;-3.63;58.67;95804.53;5106662;28;20059;-77
2022/01/23 13:15:44;;;;;;;7.07;4.20;;;;;;;-3.66;58.75;95799.44;5105241;28;20048;-76
2022/01/23 13:34:48;;;;;;;7.43;3.85;;;;;;;-3.36;57.64;95832.88;5060754;28;20052;-77
2022/01/23 13:37:14;;;;;;;7.95;4.95;;;;;;;-3.29;57.01;95816.81;5106277;28;20398;-77
2022/01/23 13:39:47;;;;;;;10.00;4.57;;;;;;;-3.27;56.39;95822.78;5071709;28;20077;-78
2022/01/23 13:54:01;;;;;;;12.38;6.03;;;;;;;-3.44;55.89;95813.22;5108904;28;20061;-77
2022/01/23 13:59:16;;;;;;;8.75;4.78;;;;;;;-3.64;56.68;95810.72;5108833;28;20104;-77
2022/01/23 14:04:15;;;;;;;6.35;4.80;;;;;;;-3.68;56.13;95810.94;5108815;28;20036;-77
2022/01/23 14:06:42;;;;;;;12.10;4.90;;;;;;;-3.68;56.86;95809.19;5109209;28;20193;-77
2022/01/23 14:09:08;;;;;;;10.02;5.13;;;;;;;-3.70;56.92;95816.28;5110091;28;20056;-77
2022/01/23 14:11:34;;;;;;;8.40;5.25;;;;;;;-3.69;56.87;95815.34;5108871;28;20520;-77
2022/01/23 14:14:13;;;;;;;10.18;4.97;;;;;;;-3.66;57.41;95817.78;5091595;28;20019;-76
2022/01/23 14:16:38;;;;;;;8.75;4.90;;;;;;;-3.69;57.05;95810.09;5108355;28;20525;-77
2022/01/23 14:19:17;;;;;;;9.48;5.15;;;;;;;-3.67;57.03;95818.72;5110010;28;20024;-77
2022/01/23 14:21:43;;;;;;;8.93;4.68;;;;;;;-3.62;57.28;95821.13;5110258;28;20367;-77
2022/01/23 14:24:09;;;;;;;13.07;5.63;;;;;;;-3.61;57.38;95822.81;5091989;28;20032;-77
2022/01/23 14:26:34;;;;;;;8.82;5.13;;;;;;;-3.56;57.01;95825.22;5110037;28;20031;-78
2022/01/23 14:29:04;;;;;;;7.13;4.53;;;;;;;-3.59;56.73;95826.19;5109548;28;20034;-77
2022/01/23 14:31:36;;;;;;;6.25;4.30;;;;;;;-3.59;57.02;95831.44;5108541;28;20465;-79
2022/01/23 14:34:04;;;;;;;8.35;4.85;;;;;;;-3.64;57.20;95839.53;5108175;28;20038;-78
2022/01/23 14:36:32;;;;;;;8.60;4.75;;;;;;;-3.63;57.67;95843.03;5075494;28;20070;-77
2022/01/23 14:39:03;;;;;;;9.07;4.70;;;;;;;-3.62;57.83;95837.69;5108122;28;20028;-78
2022/01/23 14:41:33;;;;;;;12.18;4.88;;;;;;;-3.64;58.23;95836.06;5091676;28;20069;-79
2022/01/23 14:43:58;;;;;;;8.05;5.20;;;;;;;-3.55;57.80;95832.13;5109507;27;20383;-77
2022/01/23 14:46:24;;;;;;;10.90;5.65;;;;;;;-3.55;57.64;95837.38;5107921;28;20039;-79
2022/01/23 14:48:51;;;;;;;8.55;5.18;;;;;;;-3.53;58.10;95832.91;5091240;28;20028;-77
2022/01/23 14:51:22;;;;;;;9.70;5.10;;;;;;;-3.57;58.42;95840.09;5107376;28;20562;-76
2022/01/23 14:53:48;;;;;;;7.95;5.40;;;;;;;-3.56;58.00;95835.69;5091923;28;20024;-77
2022/01/23 14:56:14;;;;;;;9.07;5.65;;;;;;;-3.56;58.30;95844.38;5089377;28;20039;-76